Time;durP1;ratioP1;P1;durP2;ratioP2;P2;SDS_P1;SDS_P2;PMS_P1;PMS_P2;Temp;Humidity;BMP_temperature;BMP_pressure;BME280_temperature;BME280_humidity;BME280_pressure;Samples;Min_cycle;Max_cycle;Signal;HPM_P1;HPM_P2
2023/05/14 00:00:00;;;;;;;16.63;11.55;;;12.60;99.90;;;;;;5005379;28;20033;-56
2023/05/14 00:02:25;;;;;;;12.77;11.32;;;12.60;99.90;;;;;;5004100;28;20033;-56
2023/05/14 00:04:52;;;;;;;13.38;11.98;;;12.50;99.90;;;;;;5008449;28;20037;-56
2023/05/14 00:07:17;;;;;;;14.07;12.40;;;12.50;99.90;;;;;;5004533;28;20046;-56
2023/05/14 00:09:43;;;;;;;15.02;12.55;;;12.40;99.90;;;;;;5005784;28;20416;-57
2023/05/14 00:12:08;;;;;;;13.48;12.07;;;12.50;99.90;;;;;;5008933;28;20132;-56
2023/05/14 00:14:34;;;;;;;13.55;12.02;;;12.40;99.90;;;;;;5005738;28;20497;-56
2023/05/14 00:17:00;;;;;;;14.05;12.55;;;12.40;99.90;;;;;;5001888;28;20045;-56
2023/05/14 00:19:26;;;;;;;14.05;12.57;;;12.40;99.90;;;;;;5004169;28;20033;-56
2023/05/14 00:21:52;;;;;;;14.15;12.23;;;12.30;99.90;;;;;;5010813;28;20237;-56
2023/05/14 00:24:18;;;;;;;16.23;13.38;;;12.20;99.90;;;;;;5002954;28;20034;-56
2023/05/14 00:26:43;;;;;;;15.18;12.57;;;12.20;99.90;;;;;;5007910;28;20048;-56
2023/05/14 00:29:09;;;;;;;14.52;12.98;;;12.20;99.90;;;;;;5005659;28;20559;-56
2023/05/14 00:31:35;;;;;;;13.25;11.98;;;12.20;99.90;;;;;;5003863;28;20033;-56
2023/05/14 00:34:00;;;;;;;13.90;12.50;;;12.20;99.90;;;;;;5005797;28;20099;-56
2023/05/14 00:36:26;;;;;;;13.73;12.30;;;12.20;99.90;;;;;;5005038;28;20052;-56
2023/05/14 00:38:51;;;;;;;17.10;12.98;;;12.00;99.90;;;;;;5004356;28;20048;-56
2023/05/14 00:41:17;;;;;;;17.13;12.60;;;12.00;99.90;;;;;;5006337;28;20042;-57
2023/05/14 00:43:43;;;;;;;14.23;12.75;;;11.90;99.90;;;;;;5001134;28;20038;-56
2023/05/14 00:46:08;;;;;;;14.13;12.60;;;12.00;99.90;;;;;;4999480;28;20105;-56
2023/05/14 00:48:34;;;;;;;13.88;12.43;;;12.00;99.90;;;;;;5003209;28;20091;-56
2023/05/14 00:51:00;;;;;;;14.40;12.15;;;11.80;99.90;;;;;;4999946;28;20510;-56
2023/05/14 00:53:26;;;;;;;16.08;12.65;;;11.70;99.90;;;;;;5003429;28;20041;-56
2023/05/14 00:55:51;;;;;;;14.05;12.57;;;11.90;99.90;;;;;;5009322;28;20033;-57
2023/05/14 00:58:18;;;;;;;13.70;12.30;;;11.70;99.90;;;;;;4999488;28;20100;-56
2023/05/14 01:00:44;;;;;;;14.85;13.07;;;11.60;99.90;;;;;;5001736;28;20035;-56
2023/05/14 01:03:09;;;;;;;15.00;12.55;;;11.50;99.90;;;;;;4995301;28;20624;-56
2023/05/14 01:06:13;;;;;;;14.15;12.75;;;11.60;99.90;;;;;;5001707;28;20045;-56
2023/05/14 01:09:00;;;;;;;15.85;13.20;;;11.70;99.90;;;;;;4969321;28;20038;-56
2023/05/14 01:11:32;;;;;;;14.70;13.13;;;11.60;99.90;;;;;;5001299;28;20041;-56
2023/05/14 01:14:13;;;;;;;17.40;14.70;;;11.30;99.90;;;;;;5006907;28;20061;-56
2023/05/14 01:16:39;;;;;;;17.02;15.23;;;11.50;99.90;;;;;;5002404;28;20042;-56
2023/05/14 01:19:20;;;;;;;17.58;14.38;;;11.70;99.90;;;;;;5006949;28;20095;-56
2023/05/14 01:21:45;;;;;;;20.40;14.55;;;11.60;99.90;;;;;;5000842;28;20080;-56
2023/05/14 01:24:11;;;;;;;15.30;13.68;;;11.50;99.90;;;;;;5002280;28;20065;-56
2023/05/14 01:26:36;;;;;;;15.80;14.15;;;11.30;99.90;;;;;;5005512;28;20033;-56
2023/05/14 01:29:12;;;;;;;15.95;14.23;;;11.30;99.90;;;;;;5003936;28;20184;-56
2023/05/14 01:31:40;;;;;;;18.33;15.15;;;11.20;99.90;;;;;;5009304;28;20122;-56
2023/05/14 01:34:07;;;;;;;17.60;15.07;;;11.30;99.90;;;;;;5006407;28;20048;-56
2023/05/14 01:36:34;;;;;;;18.48;15.02;;;11.50;99.90;;;;;;5007403;28;20064;-55
2023/05/14 01:39:02;;;;;;;17.92;16.08;;;11.40;99.90;;;;;;5007830;28;20100;-56
2023/05/14 01:41:29;;;;;;;16.67;14.73;;;11.30;99.90;;;;;;5004576;28;20072;-56
2023/05/14 01:43:56;;;;;;;17.02;14.82;;;11.20;99.90;;;;;;5008723;28;20041;-56
2023/05/14 01:46:23;;;;;;;17.83;15.10;;;11.20;99.90;;;;;;5002872;28;20129;-56
2023/05/14 01:48:49;;;;;;;18.75;15.23;;;11.00;99.90;;;;;;4987645;28;20029;-56
2023/05/14 01:51:14;;;;;;;18.05;15.38;;;11.00;99.90;;;;;;4998870;28;20044;-56
2023/05/14 01:53:40;;;;;;;17.38;15.45;;;11.10;99.90;;;;;;5004818;28;20060;-56
2023/05/14 01:56:06;;;;;;;16.55;14.85;;;11.10;99.90;;;;;;5002832;28;20108;-56
2023/05/14 01:58:32;;;;;;;18.05;14.90;;;11.10;99.90;;;;;;4998823;28;20038;-56
2023/05/14 02:00:57;;;;;;;16.75;14.73;;;11.10;99.90;;;;;;5004233;28;20041;-56
2023/05/14 02:03:23;;;;;;;16.45;14.80;;;10.90;99.90;;;;;;5005302;28;20041;-56
2023/05/14 02:05:48;;;;;;;17.48;14.13;;;11.00;99.90;;;;;;5009081;28;20346;-56
2023/05/14 02:08:14;;;;;;;16.23;14.50;;;11.00;99.90;;;;;;5007363;28;20448;-56
2023/05/14 02:10:40;;;;;;;16.10;14.43;;;10.90;99.90;;;;;;5002233;28;20046;-56
2023/05/14 02:13:05;;;;;;;16.40;14.55;;;10.90;99.90;;;;;;5002302;28;20044;-56
2023/05/14 02:15:31;;;;;;;15.80;14.20;;;10.80;99.90;;;;;;5001174;28;20038;-56
2023/05/14 02:17:56;;;;;;;16.48;14.77;;;10.80;99.90;;;;;;5007248;28;20041;-56
2023/05/14 02:20:22;;;;;;;16.02;14.40;;;10.70;99.90;;;;;;4999349;28;20034;-56
2023/05/14 02:22:47;;;;;;;17.83;15.40;;;10.80;99.90;;;;;;5007349;28;20030;-56
2023/05/14 02:25:13;;;;;;;17.13;14.65;;;10.70;99.90;;;;;;5005757;28;20038;-56
2023/05/14 02:27:39;;;;;;;16.83;15.13;;;10.60;99.90;;;;;;5009096;28;20124;-56
2023/05/14 02:30:05;;;;;;;16.92;15.10;;;10.60;99.90;;;;;;5010052;28;20263;-56
2023/05/14 02:32:30;;;;;;;17.80;15.93;;;10.70;99.90;;;;;;5005938;28;20489;-57
2023/05/14 02:34:56;;;;;;;17.88;15.60;;;10.70;99.90;;;;;;5006588;28;20030;-56
2023/05/14 02:37:21;;;;;;;17.65;15.85;;;10.70;99.90;;;;;;5004906;28;20041;-56
2023/05/14 02:39:47;;;;;;;17.90;15.10;;;10.50;99.90;;;;;;5009869;28;20033;-56
2023/05/14 02:42:13;;;;;;;18.27;16.17;;;10.50;99.90;;;;;;5007054;28;20043;-56
2023/05/14 02:44:39;;;;;;;18.30;15.00;;;10.50;99.90;;;;;;5003295;28;20042;-56
2023/05/14 02:47:05;;;;;;;17.10;15.40;;;10.50;99.90;;;;;;5007171;28;20068;-56
2023/05/14 02:49:31;;;;;;;17.98;16.15;;;10.60;99.90;;;;;;5006432;28;20410;-57
2023/05/14 02:51:56;;;;;;;17.85;15.50;;;10.50;99.90;;;;;;5002981;28;20033;-56
2023/05/14 02:54:22;;;;;;;17.63;15.50;;;10.40;99.90;;;;;;5000629;28;20117;-56
2023/05/14 02:56:47;;;;;;;20.05;16.10;;;10.50;99.90;;;;;;5008727;28;20038;-56
2023/05/14 02:59:13;;;;;;;20.02;16.77;;;10.60;99.90;;;;;;5007028;28;20117;-56
2023/05/14 03:01:39;;;;;;;19.98;17.92;;;10.70;99.90;;;;;;5008186;28;20044;-56
2023/05/14 03:04:04;;;;;;;18.80;16.33;;;10.90;99.90;;;;;;5009321;28;20137;-56
2023/05/14 03:06:30;;;;;;;20.40;18.35;;;10.70;99.90;;;;;;5003615;28;20048;-56
2023/05/14 03:08:56;;;;;;;22.48;18.50;;;10.90;99.90;;;;;;5006435;28;20038;-56
2023/05/14 03:11:21;;;;;;;21.00;17.88;;;10.90;99.90;;;;;;5007855;28;20049;-56
2023/05/14 03:13:47;;;;;;;20.48;17.90;;;10.70;99.90;;;;;;5006817;28;20623;-55
2023/05/14 03:16:12;;;;;;;19.42;17.25;;;10.70;99.90;;;;;;5000681;28;20085;-56
2023/05/14 03:18:38;;;;;;;19.58;17.35;;;10.70;99.90;;;;;;4999692;28;20099;-56
2023/05/14 03:21:03;;;;;;;20.00;18.00;;;10.80;99.90;;;;;;5002255;28;20059;-55
2023/05/14 03:23:30;;;;;;;20.00;17.92;;;10.80;99.90;;;;;;5002206;28;20061;-56
2023/05/14 03:25:56;;;;;;;21.55;18.02;;;10.90;99.90;;;;;;5003422;28;20486;-56
2023/05/14 03:28:22;;;;;;;18.73;16.77;;;10.90;99.90;;;;;;5001386;28;20045;-56
2023/05/14 03:30:47;;;;;;;18.45;16.52;;;10.60;99.90;;;;;;4999676;28;20037;-56
2023/05/14 03:33:13;;;;;;;19.45;17.00;;;10.70;99.90;;;;;;5003481;28;20633;-56
2023/05/14 03:35:39;;;;;;;20.88;17.90;;;10.70;99.90;;;;;;5000629;28;20041;-56
2023/05/14 03:38:04;;;;;;;20.85;17.38;;;10.60;99.90;;;;;;4997549;28;20161;-56
2023/05/14 03:40:30;;;;;;;20.17;17.88;;;10.60;99.90;;;;;;5006427;28;20131;-56
2023/05/14 03:42:56;;;;;;;19.13;16.58;;;10.70;99.90;;;;;;4999826;28;20058;-56
2023/05/14 03:45:21;;;;;;;19.67;16.15;;;10.40;99.90;;;;;;4998742;28;20034;-56
2023/05/14 03:47:47;;;;;;;17.98;16.08;;;10.30;99.90;;;;;;5003822;28;20029;-56
2023/05/14 03:50:12;;;;;;;20.25;17.05;;;10.30;99.90;;;;;;4993713;28;20042;-56
2023/05/14 03:52:38;;;;;;;19.85;17.83;;;10.40;99.90;;;;;;5001724;28;20120;-56
2023/05/14 03:55:04;;;;;;;19.05;17.05;;;10.50;99.90;;;;;;5000808;28;20452;-56
2023/05/14 03:57:29;;;;;;;18.98;16.98;;;10.40;99.90;;;;;;5002139;28;20555;-56
2023/05/14 03:59:55;;;;;;;19.58;17.25;;;10.40;99.90;;;;;;5003223;28;20037;-56
2023/05/14 04:02:21;;;;;;;18.05;15.98;;;10.40;99.90;;;;;;5000240;28;20062;-56
2023/05/14 04:04:46;;;;;;;18.10;16.27;;;10.30;99.90;;;;;;5000013;28;20092;-56
2023/05/14 04:07:12;;;;;;;20.40;17.63;;;10.30;99.90;;;;;;4986296;28;20040;-56
2023/05/14 04:09:37;;;;;;;18.20;16.33;;;10.30;99.90;;;;;;5001472;28;20030;-56
2023/05/14 04:12:03;;;;;;;19.77;17.67;;;10.20;99.90;;;;;;5002862;28;20180;-56
2023/05/14 04:14:29;;;;;;;21.33;17.65;;;10.30;99.90;;;;;;4992714;28;20502;-56
2023/05/14 04:16:54;;;;;;;23.63;18.25;;;10.30;99.90;;;;;;4986550;28;20053;-56
2023/05/14 04:19:20;;;;;;;19.13;16.85;;;10.40;99.90;;;;;;5000999;28;20045;-56
2023/05/14 04:21:45;;;;;;;18.80;16.35;;;10.30;99.90;;;;;;5001639;28;20038;-55
2023/05/14 04:24:11;;;;;;;18.70;16.75;;;10.30;99.90;;;;;;4998625;28;20034;-56
2023/05/14 04:26:37;;;;;;;21.30;17.65;;;10.20;99.90;;;;;;4999301;28;20042;-55
2023/05/14 04:29:02;;;;;;;20.38;18.27;;;10.40;99.90;;;;;;5000013;28;20049;-55
2023/05/14 04:31:29;;;;;;;19.85;17.67;;;10.40;99.90;;;;;;4999799;28;20050;-55
2023/05/14 04:33:54;;;;;;;20.73;18.48;;;10.30;99.90;;;;;;4999215;28;20640;-55
2023/05/14 04:36:20;;;;;;;20.10;17.95;;;10.40;99.90;;;;;;4997133;28;20156;-56
2023/05/14 04:38:45;;;;;;;20.13;17.83;;;10.50;99.90;;;;;;5000444;28;20076;-56
2023/05/14 04:41:11;;;;;;;20.77;17.73;;;10.40;99.90;;;;;;4999295;28;20513;-56
2023/05/14 04:43:36;;;;;;;20.35;17.92;;;10.40;99.90;;;;;;4986077;28;20037;-55
2023/05/14 04:46:02;;;;;;;20.40;18.40;;;10.40;99.90;;;;;;4997899;28;20052;-55
2023/05/14 04:48:28;;;;;;;19.88;17.88;;;10.50;99.90;;;;;;4983341;28;20050;-54
2023/05/14 04:50:53;;;;;;;22.65;20.05;;;10.50;99.90;;;;;;4996930;28;20034;-56
2023/05/14 04:53:19;;;;;;;22.50;18.85;;;10.50;99.90;;;;;;4998178;28;20038;-56
2023/05/14 04:55:44;;;;;;;20.95;18.85;;;10.60;99.90;;;;;;4998252;28;20808;-55
2023/05/14 04:58:10;;;;;;;21.55;19.35;;;10.60;99.90;;;;;;4998386;28;20049;-56
2023/05/14 05:00:36;;;;;;;20.67;18.48;;;10.60;99.90;;;;;;4995712;28;20053;-55
2023/05/14 05:03:02;;;;;;;21.30;19.10;;;10.60;99.90;;;;;;5000533;28;20030;-56
2023/05/14 05:05:27;;;;;;;22.10;19.70;;;10.70;99.90;;;;;;5000692;28;20027;-55
2023/05/14 05:07:53;;;;;;;20.98;18.77;;;10.80;99.90;;;;;;4999470;28;20030;-55
2023/05/14 05:10:19;;;;;;;22.63;20.25;;;10.80;99.90;;;;;;4998958;28;20038;-56
2023/05/14 05:12:44;;;;;;;22.60;19.17;;;10.90;99.90;;;;;;4996658;28;20041;-55
2023/05/14 05:15:10;;;;;;;25.85;20.77;;;10.90;99.90;;;;;;5006380;28;20041;-56
2023/05/14 05:17:36;;;;;;;21.67;19.35;;;10.90;99.90;;;;;;4980564;28;20053;-55
2023/05/14 05:20:02;;;;;;;24.23;21.58;;;11.10;99.90;;;;;;4996983;28;20049;-57
2023/05/14 05:22:28;;;;;;;26.08;21.75;;;11.10;99.90;;;;;;5002751;28;20045;-56
2023/05/14 05:24:53;;;;;;;24.95;22.13;;;11.30;99.90;;;;;;5002713;28;20413;-55
2023/05/14 05:27:20;;;;;;;27.30;24.27;;;11.40;99.90;;;;;;5004121;28;20452;-55
2023/05/14 05:29:46;;;;;;;27.17;23.83;;;11.50;99.90;;;;;;4996630;28;20038;-55
2023/05/14 05:32:12;;;;;;;28.90;24.15;;;11.70;99.90;;;;;;4989375;28;20374;-55
2023/05/14 05:34:38;;;;;;;31.92;26.27;;;11.90;99.90;;;;;;4996767;28;20045;-56
2023/05/14 05:37:04;;;;;;;28.77;25.67;;;12.00;99.90;;;;;;5000432;28;20037;-56
2023/05/14 05:39:33;;;;;;;29.77;26.05;;;12.10;99.90;;;;;;5003570;28;20045;-55
2023/05/14 05:42:01;;;;;;;27.67;24.58;;;12.20;99.90;;;;;;5003521;28;20711;-55
2023/05/14 05:44:27;;;;;;;29.40;26.27;;;12.40;99.90;;;;;;4998874;28;20124;-55
2023/05/14 05:46:55;;;;;;;28.40;25.35;;;12.60;99.90;;;;;;5002869;28;20440;-56
2023/05/14 05:49:21;;;;;;;27.98;25.05;;;12.60;99.90;;;;;;4997790;28;20140;-55
2023/05/14 05:51:46;;;;;;;29.35;26.13;;;12.60;99.90;;;;;;5002076;28;20068;-55
2023/05/14 05:54:12;;;;;;;27.10;23.83;;;12.70;99.90;;;;;;4996935;28;20100;-55
2023/05/14 05:56:38;;;;;;;29.50;23.70;;;12.70;99.90;;;;;;4994466;28;20511;-56
2023/05/14 05:59:03;;;;;;;25.85;23.13;;;12.80;99.90;;;;;;5001953;28;20401;-56
2023/05/14 06:01:29;;;;;;;24.42;21.90;;;12.90;99.90;;;;;;5001180;28;20413;-56
2023/05/14 06:03:55;;;;;;;26.00;22.33;;;12.90;3.00;;;;;;5005921;28;20437;-56
2023/05/14 06:06:20;;;;;;;24.52;21.40;;;13.00;13.00;;;;;;5007452;28;20564;-56
2023/05/14 06:08:46;;;;;;;25.88;21.65;;;12.90;34.60;;;;;;5009148;28;20033;-56
2023/05/14 06:11:11;;;;;;;23.63;21.20;;;12.90;48.40;;;;;;5007828;28;20477;-56
2023/05/14 06:13:37;;;;;;;27.73;22.45;;;13.00;99.90;;;;;;5004630;28;20060;-56
2023/05/14 06:16:03;;;;;;;25.92;23.13;;;13.10;53.70;;;;;;5004427;28;20038;-56
2023/05/14 06:18:28;;;;;;;25.67;22.98;;;13.30;99.90;;;;;;4992960;28;20652;-56
2023/05/14 06:20:55;;;;;;;26.75;23.13;;;13.40;95.50;;;;;;4986987;28;20113;-55
2023/05/14 06:23:21;;;;;;;28.80;22.65;;;13.40;43.80;;;;;;5005952;28;20198;-56
2023/05/14 06:25:49;;;;;;;25.58;22.98;;;13.50;74.30;;;;;;5009595;28;20038;-56
2023/05/14 06:28:14;;;;;;;25.60;22.90;;;13.60;44.50;;;;;;5009250;28;20033;-56
2023/05/14 06:30:40;;;;;;;24.98;22.38;;;13.70;74.10;;;;;;4991205;28;20041;-56
2023/05/14 06:33:06;;;;;;;28.10;23.45;;;13.70;48.00;;;;;;5003504;28;20117;-56
2023/05/14 06:35:33;;;;;;;25.48;21.45;;;13.70;77.00;;;;;;4989961;28;20294;-55
2023/05/14 06:37:59;;;;;;;26.73;22.20;;;13.60;1.00;;;;;;5006166;28;20040;-55
2023/05/14 06:40:24;;;;;;;25.52;22.83;;;13.80;56.40;;;;;;5006851;28;20037;-56
2023/05/14 06:42:50;;;;;;;29.27;23.55;;;14.00;67.10;;;;;;5005821;28;20072;-55
2023/05/14 06:45:15;;;;;;;28.35;22.80;;;14.20;29.60;;;;;;5004132;28;20033;-56
2023/05/14 06:47:41;;;;;;;28.10;23.80;;;14.00;1.00;;;;;;5005207;28;20064;-56
2023/05/14 06:50:07;;;;;;;28.67;25.13;;;14.30;1.00;;;;;;5004791;28;20034;-55
2023/05/14 06:52:33;;;;;;;27.15;23.70;;;14.50;1.00;;;;;;5003825;28;20117;-56
2023/05/14 06:54:58;;;;;;;27.98;24.50;;;14.50;1.00;;;;;;5001595;28;20033;-56
2023/05/14 06:57:24;;;;;;;31.30;24.35;;;14.60;1.00;;;;;;5004235;28;20428;-56
2023/05/14 06:59:49;;;;;;;29.98;23.55;;;14.60;1.00;;;;;;5006828;28;20600;-56
2023/05/14 07:02:15;;;;;;;28.95;22.70;;;14.50;1.00;;;;;;4997724;28;20388;-55
2023/05/14 07:04:40;;;;;;;31.40;24.40;;;14.50;1.00;;;;;;5007637;28;20463;-57
2023/05/14 07:07:06;;;;;;;28.67;24.20;;;14.60;1.00;;;;;;5004468;28;21006;-56
2023/05/14 07:09:32;;;;;;;32.25;23.65;;;14.70;1.00;;;;;;5008924;28;20042;-56
2023/05/14 07:11:57;;;;;;;27.27;23.20;;;14.80;1.00;;;;;;5009308;28;20072;-57
2023/05/14 07:14:23;;;;;;;28.77;24.35;;;14.80;1.00;;;;;;5002994;28;20038;-56
2023/05/14 07:16:48;;;;;;;32.22;23.88;;;15.20;1.00;;;;;;4995428;28;20121;-57
2023/05/14 07:19:14;;;;;;;30.77;25.38;;;15.40;1.00;;;;;;4998247;28;20425;-57
2023/05/14 07:21:40;;;;;;;33.75;25.15;;;15.50;99.90;;;;;;5009455;28;20115;-56
2023/05/14 07:24:06;;;;;;;31.55;25.13;;;15.50;99.90;;;;;;5005079;28;20565;-56
2023/05/14 07:26:31;;;;;;;30.55;24.52;;;15.40;99.90;;;;;;5005413;28;20049;-56
2023/05/14 07:28:57;;;;;;;31.70;24.17;;;15.30;99.90;;;;;;5006733;28;20029;-57
2023/05/14 07:31:22;;;;;;;30.25;24.70;;;15.50;1.00;;;;;;5008657;28;20077;-56
2023/05/14 07:33:48;;;;;;;34.72;25.48;;;15.90;1.00;;;;;;5005526;28;20115;-57
2023/05/14 07:36:14;;;;;;;30.70;24.45;;;16.10;99.90;;;;;;5010322;28;20037;-56
2023/05/14 07:38:39;;;;;;;33.45;24.73;;;16.40;99.90;;;;;;5008040;28;20037;-56
2023/05/14 07:41:05;;;;;;;29.38;23.30;;;16.70;99.90;;;;;;5001518;28;20038;-57
2023/05/14 07:43:31;;;;;;;36.92;30.33;;;16.60;99.90;;;;;;5003664;28;20165;-56
2023/05/14 07:45:56;;;;;;;35.20;24.80;;;16.40;99.90;;;;;;5011165;28;20048;-56
2023/05/14 07:48:22;;;;;;;25.50;22.67;;;16.40;99.90;;;;;;5001122;28;20109;-57
2023/05/14 07:50:48;;;;;;;27.67;22.90;;;16.50;99.90;;;;;;5005956;28;20044;-56
2023/05/14 07:53:13;;;;;;;29.60;23.15;;;16.60;99.90;;;;;;5005775;28;20045;-56
2023/05/14 07:55:40;;;;;;;26.38;20.83;;;16.70;99.90;;;;;;5008586;28;20030;-57
2023/05/14 07:58:06;;;;;;;24.55;19.55;;;16.70;1.00;;;;;;5003688;28;20030;-57
2023/05/14 08:00:31;;;;;;;24.63;19.05;;;16.70;1.00;;;;;;5005706;28;20048;-56
2023/05/14 08:02:57;;;;;;;22.95;18.88;;;16.80;1.00;;;;;;5003529;28;20026;-57
2023/05/14 08:05:22;;;;;;;23.70;17.95;;;16.90;99.90;;;;;;4999406;28;20056;-57
2023/05/14 08:07:48;;;;;;;25.20;18.33;;;17.30;1.00;;;;;;5007744;28;20034;-57
2023/05/14 08:10:14;;;;;;;22.73;14.43;;;17.40;99.90;;;;;;4999511;28;20059;-58
2023/05/14 08:12:39;;;;;;;21.98;14.80;;;17.30;1.00;;;;;;5003223;28;20046;-57
2023/05/14 08:15:06;;;;;;;20.52;15.35;;;17.20;1.00;;;;;;5000235;28;20037;-57
2023/05/14 08:17:32;;;;;;;15.13;11.95;;;17.40;1.00;;;;;;4996248;28;20216;-58
2023/05/14 08:19:57;;;;;;;15.77;12.50;;;17.60;1.00;;;;;;5000125;28;20386;-57
2023/05/14 08:22:23;;;;;;;16.42;11.30;;;17.80;99.90;;;;;;5004458;28;20041;-57
2023/05/14 08:24:48;;;;;;;17.90;10.52;;;17.80;99.90;;;;;;4996220;28;20323;-58
2023/05/14 08:27:15;;;;;;;13.05;10.15;;;17.80;99.90;;;;;;5002432;28;20041;-58
2023/05/14 08:29:41;;;;;;;12.95;9.55;;;17.90;1.00;;;;;;5003981;28;20089;-57
2023/05/14 08:32:07;;;;;;;14.10;9.77;;;18.00;1.00;;;;;;5003480;28;20061;-57
2023/05/14 08:34:32;;;;;;;14.70;10.18;;;18.20;99.90;;;;;;4987098;28;20038;-57
2023/05/14 08:36:58;;;;;;;11.60;10.40;;;18.20;1.00;;;;;;5002903;28;20052;-57
2023/05/14 08:39:24;;;;;;;19.65;11.75;;;18.30;1.00;;;;;;5005540;28;20064;-57
2023/05/14 08:41:50;;;;;;;17.67;11.10;;;18.30;99.90;;;;;;5004366;28;20493;-58
2023/05/14 08:44:22;;;;;;;14.88;12.00;;;18.40;99.90;;;;;;4988340;28;20039;-57
2023/05/14 08:46:50;;;;;;;14.98;12.32;;;18.10;1.00;;;;;;5000271;28;20481;-57
2023/05/14 08:49:40;;;;;;;22.70;18.10;;;18.20;99.90;;;;;;5008672;28;20475;-57
2023/05/14 08:52:07;;;;;;;23.88;16.85;;;18.10;1.00;;;;;;5005377;28;20129;-57
2023/05/14 08:54:33;;;;;;;22.20;17.92;;;18.10;99.90;;;;;;5005164;28;20045;-57
2023/05/14 08:56:58;;;;;;;18.90;14.10;;;18.10;99.90;;;;;;5013758;28;20059;-57
2023/05/14 08:59:24;;;;;;;18.35;14.73;;;18.20;99.90;;;;;;5006122;28;20041;-57
2023/05/14 09:01:54;;;;;;;17.58;12.85;;;18.30;99.90;;;;;;5006567;28;20116;-57
2023/05/14 09:04:22;;;;;;;20.30;12.05;;;18.50;99.90;;;;;;4999324;28;20132;-58
2023/05/14 09:06:49;;;;;;;16.10;12.57;;;18.50;99.90;;;;;;5006739;28;20497;-58
2023/05/14 09:09:15;;;;;;;41.00;33.67;;;18.60;1.00;;;;;;5004668;28;20061;-58
2023/05/14 09:11:51;;;;;;;19.75;13.65;;;18.50;95.10;;;;;;5003289;28;20080;-58
2023/05/14 09:14:17;;;;;;;18.85;12.82;;;18.50;1.00;;;;;;5001500;28;20037;-58
2023/05/14 09:16:45;;;;;;;16.67;12.27;;;18.50;99.90;;;;;;5000315;28;20560;-58
2023/05/14 09:19:11;;;;;;;15.73;11.63;;;18.70;99.90;;;;;;5000381;28;20050;-58
2023/05/14 09:21:37;;;;;;;15.20;11.35;;;18.90;99.90;;;;;;5004054;28;20038;-58
2023/05/14 09:24:03;;;;;;;13.88;10.73;;;18.90;1.00;;;;;;5001221;28;20238;-58
2023/05/14 09:26:31;;;;;;;18.92;10.90;;;19.00;1.00;;;;;;5007322;28;20034;-58
2023/05/14 09:29:01;;;;;;;17.45;11.63;;;18.70;1.00;;;;;;4987311;28;20092;-58
2023/05/14 09:31:30;;;;;;;15.82;9.55;;;19.00;99.90;;;;;;5006313;28;20053;-58
2023/05/14 09:33:55;;;;;;;14.00;10.38;;;19.10;99.90;;;;;;5005260;28;20033;-58
2023/05/14 09:36:22;;;;;;;16.80;10.55;;;19.10;99.90;;;;;;5001694;28;20060;-58
2023/05/14 09:38:47;;;;;;;17.05;10.30;;;19.30;99.90;;;;;;5005213;28;20038;-58
2023/05/14 09:41:13;;;;;;;15.55;10.38;;;19.20;1.00;;;;;;5007463;28;20176;-57
2023/05/14 09:43:38;;;;;;;15.68;10.07;;;19.20;1.00;;;;;;5011118;28;20042;-58
2023/05/14 09:46:04;;;;;;;13.88;9.05;;;19.30;1.00;;;;;;5014246;28;20033;-58
2023/05/14 09:48:29;;;;;;;12.05;8.20;;;19.40;1.00;;;;;;5009589;28;20049;-57
2023/05/14 09:50:55;;;;;;;10.57;8.40;;;19.50;99.90;;;;;;5007151;28;20030;-57
2023/05/14 09:53:21;;;;;;;11.27;9.30;;;19.70;1.00;;;;;;5008156;28;20478;-58
2023/05/14 09:55:46;;;;;;;12.30;8.77;;;19.50;1.00;;;;;;5012162;28;20133;-58
2023/05/14 09:58:15;;;;;;;11.63;8.57;;;19.60;1.00;;;;;;5008087;28;20034;-58
2023/05/14 10:00:45;;;;;;;11.73;7.57;;;19.50;99.90;;;;;;5007993;28;20030;-57
2023/05/14 10:03:13;;;;;;;10.10;8.00;;;19.80;1.00;;;;;;5004581;28;20034;-57
2023/05/14 10:05:40;;;;;;;13.25;9.23;;;19.90;1.00;;;;;;5005403;28;20030;-58
2023/05/14 10:08:16;;;;;;;13.23;10.07;;;19.90;99.90;;;;;;5005003;28;20038;-58
2023/05/14 10:10:42;;;;;;;11.80;8.77;;;19.90;1.00;;;;;;5004956;28;20049;-58
2023/05/14 10:13:21;;;;;;;14.00;9.05;;;20.00;99.90;;;;;;4989120;28;20034;-57
2023/05/14 10:15:51;;;;;;;13.23;9.77;;;19.90;1.00;;;;;;5000448;28;20453;-58
2023/05/14 10:18:20;;;;;;;14.02;8.85;;;19.90;99.90;;;;;;4999801;28;20037;-58
2023/05/14 10:21:03;;;;;;;12.02;8.73;;;19.90;99.90;;;;;;5006798;28;20482;-58
2023/05/14 10:23:29;;;;;;;10.90;8.77;;;20.10;99.90;;;;;;5003482;28;20034;-58
2023/05/14 10:25:56;;;;;;;21.23;8.25;;;20.20;1.00;;;;;;5005594;28;20053;-58
2023/05/14 10:28:22;;;;;;;10.93;7.60;;;20.50;99.90;;;;;;5004503;28;20042;-58
2023/05/14 10:30:49;;;;;;;12.52;7.72;;;20.30;1.00;;;;;;5005399;28;20505;-58
2023/05/14 10:33:17;;;;;;;11.75;6.10;;;20.30;36.60;;;;;;5007533;28;20050;-58
2023/05/14 10:36:04;;;;;;;13.68;8.38;;;20.40;99.90;;;;;;5004315;28;20422;-58
2023/05/14 10:38:34;;;;;;;11.55;8.90;;;20.30;1.00;;;;;;5003110;28;20121;-58
2023/05/14 10:41:03;;;;;;;13.98;8.90;;;20.10;1.00;;;;;;5005298;28;20068;-58
2023/05/14 10:43:30;;;;;;;11.07;8.38;;;20.30;1.00;;;;;;5006804;28;20144;-58
2023/05/14 10:45:57;;;;;;;13.05;9.20;;;20.30;99.90;;;;;;5010018;28;20064;-58
2023/05/14 10:48:23;;;;;;;16.90;9.75;;;20.30;1.00;;;;;;5008014;28;20066;-58
2023/05/14 10:50:52;;;;;;;14.43;9.55;;;20.10;1.00;;;;;;5000067;28;20076;-58
2023/05/14 10:53:19;;;;;;;15.82;9.07;;;20.00;99.90;;;;;;5006995;28;20065;-57
2023/05/14 10:55:45;;;;;;;12.32;8.10;;;20.10;99.90;;;;;;5013218;28;20097;-57
2023/05/14 10:58:11;;;;;;;14.13;8.32;;;20.10;99.90;;;;;;5012126;28;20104;-57
2023/05/14 11:00:37;;;;;;;18.00;9.57;;;20.00;1.00;;;;;;5008521;28;20093;-58
2023/05/14 11:03:04;;;;;;;10.90;8.13;;;19.90;55.50;;;;;;5004419;28;20045;-58
2023/05/14 11:05:31;;;;;;;13.20;8.60;;;20.00;99.90;;;;;;4997731;28;20053;-58
2023/05/14 11:07:58;;;;;;;13.52;7.88;;;20.00;99.90;;;;;;5007906;28;20033;-58
2023/05/14 11:10:28;;;;;;;10.00;7.18;;;19.90;46.40;;;;;;5005147;28;20053;-58
2023/05/14 11:12:55;;;;;;;9.07;6.38;;;20.00;99.90;;;;;;5003825;28;20030;-59
2023/05/14 11:15:23;;;;;;;9.57;6.20;;;19.90;1.00;;;;;;5001103;28;20034;-58
2023/05/14 11:17:50;;;;;;;11.98;6.20;;;19.90;1.00;;;;;;4999001;28;20369;-58
2023/05/14 11:20:16;;;;;;;9.00;6.47;;;20.10;1.00;;;;;;5003882;28;20099;-59
2023/05/14 11:22:42;;;;;;;7.13;5.45;;;20.10;1.00;;;;;;5010589;28;20454;-58
2023/05/14 11:25:09;;;;;;;6.47;4.00;;;20.20;99.90;;;;;;4983384;28;20537;-58
2023/05/14 11:27:37;;;;;;;7.35;3.75;;;20.10;99.90;;;;;;5004488;28;20037;-58
2023/05/14 11:30:03;;;;;;;4.80;3.53;;;20.30;88.20;;;;;;5008185;28;20049;-58
2023/05/14 11:32:32;;;;;;;4.78;2.95;;;20.60;99.90;;;;;;5002036;28;20512;-58
2023/05/14 11:34:58;;;;;;;7.53;3.50;;;20.70;68.80;;;;;;5006401;28;20095;-58
2023/05/14 11:37:23;;;;;;;6.90;3.17;;;20.70;1.00;;;;;;5009452;28;20033;-58
2023/05/14 11:39:54;;;;;;;5.10;3.00;;;20.70;99.90;;;;;;5008215;28;20425;-58
2023/05/14 11:42:21;;;;;;;5.65;2.90;;;20.80;99.90;;;;;;5004907;28;20091;-58
2023/05/14 11:44:50;;;;;;;11.98;2.78;;;20.90;99.90;;;;;;5001990;28;20354;-57
2023/05/14 11:47:17;;;;;;;3.88;2.80;;;20.90;99.90;;;;;;5006492;28;20041;-58
2023/05/14 11:49:43;;;;;;;4.75;3.00;;;20.90;99.90;;;;;;5007656;28;20061;-58
2023/05/14 11:52:11;;;;;;;8.10;3.08;;;20.90;99.90;;;;;;5000559;28;20041;-58
2023/05/14 11:54:37;;;;;;;4.85;2.60;;;21.10;99.90;;;;;;5001080;28;20038;-58
2023/05/14 11:57:11;;;;;;;7.63;3.35;;;21.10;99.90;;;;;;5004255;28;20045;-58
2023/05/14 11:59:37;;;;;;;9.43;6.53;;;21.30;99.90;;;;;;5003111;28;20045;-57
2023/05/14 12:02:04;;;;;;;5.72;3.60;;;21.30;99.90;;;;;;5000856;28;20243;-58
2023/05/14 12:04:30;;;;;;;7.82;2.80;;;21.30;99.90;;;;;;5002919;28;20148;-57
2023/05/14 12:06:58;;;;;;;5.43;3.03;;;21.30;99.90;;;;;;5004221;28;20674;-58
2023/05/14 12:09:24;;;;;;;6.15;2.70;;;21.40;99.90;;;;;;5002134;28;20128;-60
2023/05/14 12:11:50;;;;;;;7.00;2.70;;;21.40;99.90;;;;;;4999209;28;20434;-58
2023/05/14 12:14:19;;;;;;;6.00;2.80;;;21.20;99.90;;;;;;4998806;28;20034;-58
2023/05/14 12:16:45;;;;;;;4.90;2.80;;;21.10;99.90;;;;;;5002731;28;20048;-58
2023/05/14 12:19:13;;;;;;;3.00;2.53;;;21.30;99.90;;;;;;5003578;28;20091;-58
2023/05/14 12:21:41;;;;;;;3.35;2.85;;;21.40;99.90;;;;;;5005380;28;20482;-58
2023/05/14 12:24:18;;;;;;;5.20;2.70;;;21.60;99.90;;;;;;4998731;28;20591;-58
2023/05/14 12:26:48;;;;;;;12.55;2.92;;;21.40;99.90;;;;;;5002022;28;20560;-58
2023/05/14 12:29:15;;;;;;;5.57;2.67;;;21.50;99.90;;;;;;5002286;28;20034;-58